createdAt,value
2023-05-18T00:00:16.554Z,100.00
2023-05-18T00:02:48.679Z,100.00
2023-05-18T00:05:20.809Z,100.00
2023-05-18T00:07:51.317Z,100.00
2023-05-18T00:10:21.111Z,100.00
2023-05-18T00:12:50.831Z,100.00
2023-05-18T00:15:19.945Z,100.00
2023-05-18T00:17:50.824Z,100.00
2023-05-18T00:20:22.381Z,100.00
2023-05-18T00:22:53.090Z,100.00
2023-05-18T00:25:21.599Z,100.00
2023-05-18T00:27:52.224Z,100.00
2023-05-18T00:30:21.625Z,100.00
2023-05-18T00:32:50.049Z,100.00
2023-05-18T00:35:20.657Z,100.00
2023-05-18T00:37:49.314Z,100.00
2023-05-18T00:40:20.089Z,100.00
2023-05-18T00:42:48.457Z,100.00
2023-05-18T00:45:17.101Z,100.00
2023-05-18T00:47:49.474Z,100.00
2023-05-18T00:50:18.013Z,100.00
2023-05-18T00:52:47.896Z,100.00
2023-05-18T00:55:20.063Z,100.00
2023-05-18T00:57:48.571Z,100.00
2023-05-18T01:00:17.534Z,100.00
2023-05-18T01:02:48.953Z,100.00
2023-05-18T01:05:18.513Z,100.00
2023-05-18T01:07:47.279Z,100.00
2023-05-18T01:10:18.821Z,100.00
2023-05-18T01:12:52.448Z,100.00
2023-05-18T01:15:24.017Z,100.00
2023-05-18T01:18:10.693Z,100.00
2023-05-18T01:20:46.184Z,100.00
2023-05-18T01:23:47.091Z,100.00
2023-05-18T01:26:25.534Z,100.00
2023-05-18T01:28:55.308Z,100.00
2023-05-18T01:31:24.616Z,100.00
2023-05-18T01:33:54.625Z,100.00
2023-05-18T01:36:23.711Z,100.00
2023-05-18T01:38:52.788Z,100.00
2023-05-18T01:41:24.947Z,100.00
2023-05-18T01:44:01.581Z,100.00
2023-05-18T01:46:38.232Z,100.00
2023-05-18T01:49:16.770Z,100.00
2023-05-18T01:51:48.134Z,100.00
2023-05-18T01:54:19.222Z,100.00
2023-05-18T01:56:52.438Z,100.00
2023-05-18T01:59:22.469Z,100.00
2023-05-18T02:01:51.032Z,100.00
2023-05-18T02:04:28.546Z,100.00
2023-05-18T02:06:57.139Z,100.00
2023-05-18T02:09:28.823Z,100.00
2023-05-18T02:11:59.894Z,100.00
2023-05-18T02:14:30.363Z,100.00
2023-05-18T02:16:58.818Z,100.00
2023-05-18T02:19:27.331Z,100.00
2023-05-18T02:21:56.435Z,100.00
2023-05-18T02:24:25.047Z,100.00
2023-05-18T02:26:53.345Z,100.00
2023-05-18T02:29:23.440Z,100.00
2023-05-18T02:31:51.936Z,100.00
2023-05-18T02:34:22.184Z,100.00
2023-05-18T02:36:50.527Z,100.00
2023-05-18T02:39:18.817Z,100.00
2023-05-18T02:41:47.335Z,100.00
2023-05-18T02:44:16.055Z,100.00
2023-05-18T02:46:45.680Z,100.00
2023-05-18T02:49:13.822Z,100.00
2023-05-18T02:51:42.284Z,100.00
2023-05-18T02:54:10.930Z,100.00
2023-05-18T02:56:41.901Z,100.00
2023-05-18T02:59:10.130Z,100.00
2023-05-18T03:01:38.989Z,100.00
2023-05-18T03:04:09.100Z,100.00
2023-05-18T03:06:40.411Z,100.00
2023-05-18T03:09:08.598Z,100.00
2023-05-18T03:11:36.827Z,100.00
2023-05-18T03:14:05.389Z,100.00
2023-05-18T03:16:34.087Z,100.00
2023-05-18T03:19:03.153Z,100.00
2023-05-18T03:21:36.206Z,100.00
2023-05-18T03:24:05.605Z,100.00
2023-05-18T03:26:34.072Z,100.00
2023-05-18T03:29:02.638Z,100.00
2023-05-18T03:31:34.038Z,100.00
2023-05-18T03:34:03.538Z,100.00
2023-05-18T03:36:33.520Z,100.00
2023-05-18T03:39:01.761Z,100.00
2023-05-18T03:41:31.974Z,100.00
2023-05-18T03:44:00.343Z,100.00
2023-05-18T03:46:28.979Z,100.00
2023-05-18T03:48:58.164Z,100.00
2023-05-18T03:51:27.381Z,100.00
2023-05-18T03:53:58.491Z,100.00
2023-05-18T03:56:27.821Z,100.00
2023-05-18T03:58:56.226Z,100.00
2023-05-18T04:01:24.758Z,100.00
2023-05-18T04:03:56.693Z,100.00
2023-05-18T04:06:26.432Z,100.00
2023-05-18T04:08:55.119Z,100.00
2023-05-18T04:11:24.960Z,100.00
2023-05-18T04:13:53.476Z,100.00
2023-05-18T04:16:25.130Z,100.00
2023-05-18T04:18:54.278Z,100.00
2023-05-18T04:21:23.428Z,100.00
2023-05-18T04:23:53.400Z,100.00
2023-05-18T04:26:22.401Z,100.00
2023-05-18T04:28:52.779Z,100.00
2023-05-18T04:31:22.101Z,100.00
2023-05-18T04:33:51.624Z,100.00
2023-05-18T04:36:25.847Z,100.00
2023-05-18T04:38:54.312Z,100.00
2023-05-18T04:41:22.759Z,100.00
2023-05-18T04:43:54.408Z,100.00
2023-05-18T04:46:24.038Z,100.00
2023-05-18T04:48:53.403Z,100.00
2023-05-18T04:51:22.370Z,100.00
2023-05-18T04:53:53.300Z,100.00
2023-05-18T04:56:22.901Z,100.00
2023-05-18T04:58:52.990Z,100.00
2023-05-18T05:01:21.433Z,100.00
2023-05-18T05:03:50.152Z,100.00
2023-05-18T05:06:20.944Z,100.00
2023-05-18T05:08:49.735Z,100.00
2023-05-18T05:11:18.629Z,100.00
2023-05-18T05:13:46.849Z,100.00
2023-05-18T05:16:17.307Z,100.00
2023-05-18T05:18:47.394Z,100.00
2023-05-18T05:21:17.281Z,100.00
2023-05-18T05:23:45.982Z,100.00
2023-05-18T05:26:14.353Z,100.00
2023-05-18T05:28:42.739Z,100.00
2023-05-18T05:31:11.431Z,100.00
2023-05-18T05:33:41.644Z,100.00
2023-05-18T05:36:10.717Z,100.00
2023-05-18T05:38:39.193Z,100.00
2023-05-18T05:41:08.013Z,100.00
2023-05-18T05:43:36.359Z,100.00
2023-05-18T05:46:04.893Z,100.00
2023-05-18T05:48:34.212Z,100.00
2023-05-18T05:51:04.072Z,100.00
2023-05-18T05:53:32.834Z,100.00
2023-05-18T05:56:01.261Z,100.00
2023-05-18T05:58:29.644Z,100.00
2023-05-18T06:00:58.156Z,100.00
2023-05-18T06:03:26.748Z,100.00
2023-05-18T06:05:56.611Z,100.00
2023-05-18T06:08:28.821Z,100.00
2023-05-18T06:10:59.247Z,100.00
2023-05-18T06:13:28.052Z,100.00
2023-05-18T06:15:56.482Z,100.00
2023-05-18T06:18:24.779Z,100.00
2023-05-18T06:20:53.455Z,100.00
2023-05-18T06:23:23.829Z,100.00
2023-05-18T06:25:54.098Z,100.00
2023-05-18T06:28:24.493Z,100.00
2023-05-18T06:30:52.963Z,100.00
2023-05-18T06:33:23.803Z,100.00
2023-05-18T06:35:52.499Z,100.00
2023-05-18T06:38:21.102Z,100.00
2023-05-18T06:40:50.136Z,100.00
2023-05-18T06:43:19.952Z,100.00
2023-05-18T06:45:48.507Z,100.00
2023-05-18T06:48:16.819Z,100.00
2023-05-18T06:50:45.805Z,100.00
2023-05-18T06:53:15.934Z,100.00
2023-05-18T06:55:44.162Z,100.00
2023-05-18T06:58:12.400Z,100.00
2023-05-18T07:00:42.869Z,100.00
2023-05-18T07:03:11.315Z,100.00
2023-05-18T07:05:40.066Z,100.00
2023-05-18T07:08:09.880Z,100.00
2023-05-18T07:10:38.682Z,100.00
2023-05-18T07:13:08.446Z,100.00
2023-05-18T07:15:36.921Z,100.00
2023-05-18T07:18:06.704Z,100.00
2023-05-18T07:20:35.274Z,100.00
2023-05-18T07:23:04.224Z,100.00
2023-05-18T07:25:32.625Z,100.00
2023-05-18T07:28:02.391Z,100.00
2023-05-18T07:30:30.978Z,100.00
2023-05-18T07:32:59.470Z,100.00
2023-05-18T07:35:29.883Z,100.00
2023-05-18T07:38:00.728Z,100.00
2023-05-18T07:40:28.936Z,100.00
2023-05-18T07:42:57.100Z,100.00
2023-05-18T07:45:25.349Z,100.00
2023-05-18T07:47:54.284Z,100.00
2023-05-18T07:50:22.954Z,100.00
2023-05-18T07:53:07.119Z,100.00
2023-05-18T07:55:37.083Z,100.00
2023-05-18T07:58:05.230Z,100.00
2023-05-18T08:00:33.519Z,100.00
2023-05-18T08:03:02.826Z,100.00
2023-05-18T08:05:32.306Z,100.00
2023-05-18T08:08:08.351Z,100.00
2023-05-18T08:10:36.806Z,99.63
2023-05-18T08:13:05.932Z,100.00
2023-05-18T08:15:36.191Z,100.00
2023-05-18T08:18:04.759Z,95.83
2023-05-18T08:20:34.114Z,93.13
2023-05-18T08:23:04.666Z,95.04
2023-05-18T08:25:33.680Z,93.16
2023-05-18T08:28:02.059Z,93.72
2023-05-18T08:30:32.845Z,92.14
2023-05-18T08:33:01.945Z,91.97
2023-05-18T08:35:30.908Z,94.63
2023-05-18T08:38:00.531Z,93.10
2023-05-18T08:40:38.762Z,93.07
2023-05-18T08:43:14.118Z,89.96
2023-05-18T08:45:48.974Z,88.76
2023-05-18T08:48:18.235Z,87.96
2023-05-18T08:50:51.690Z,90.62
2023-05-18T08:53:23.312Z,90.68
2023-05-18T08:55:55.606Z,84.93
2023-05-18T08:58:32.487Z,85.03
2023-05-18T09:01:02.959Z,81.30
2023-05-18T09:03:33.054Z,84.15
2023-05-18T09:06:03.239Z,79.39
2023-05-18T09:08:33.915Z,81.29
2023-05-18T09:11:04.752Z,75.81
2023-05-18T09:13:35.078Z,71.51
2023-05-18T09:16:04.460Z,65.90
2023-05-18T09:18:32.975Z,63.96
2023-05-18T09:21:01.513Z,62.90
2023-05-18T09:23:29.887Z,58.52
2023-05-18T09:26:01.178Z,62.21
2023-05-18T09:28:36.807Z,59.87
2023-05-18T09:31:08.052Z,54.53
2023-05-18T09:33:37.939Z,52.64
2023-05-18T09:36:07.488Z,49.21
2023-05-18T09:38:38.796Z,54.63
2023-05-18T09:41:13.032Z,57.09
2023-05-18T09:43:44.025Z,51.69
2023-05-18T09:46:14.674Z,47.42
2023-05-18T09:48:47.372Z,48.37
2023-05-18T09:51:17.827Z,52.84
2023-05-18T09:53:49.749Z,51.53
2023-05-18T09:56:20.128Z,52.24
2023-05-18T09:58:50.103Z,49.48
2023-05-18T10:01:19.104Z,51.30
2023-05-18T10:03:49.911Z,54.37
2023-05-18T10:06:20.368Z,50.01
2023-05-18T10:08:48.665Z,49.20
2023-05-18T10:11:22.082Z,49.44
2023-05-18T10:13:57.877Z,52.61
2023-05-18T10:16:27.007Z,50.93
2023-05-18T10:18:57.454Z,48.38
2023-05-18T10:21:29.926Z,45.68
2023-05-18T10:24:01.030Z,45.35
2023-05-18T10:26:32.005Z,43.40
2023-05-18T10:29:02.303Z,44.50
2023-05-18T10:31:32.910Z,43.43
2023-05-18T10:34:01.855Z,45.63
2023-05-18T10:36:33.015Z,44.24
2023-05-18T10:39:03.963Z,45.69
2023-05-18T10:41:33.993Z,41.14
2023-05-18T10:44:05.216Z,42.98
2023-05-18T10:46:35.114Z,43.99
2023-05-18T10:49:05.925Z,43.64
2023-05-18T10:51:35.367Z,43.87
2023-05-18T10:54:13.756Z,42.92
2023-05-18T10:56:45.269Z,42.23
2023-05-18T10:59:20.486Z,44.13
2023-05-18T11:01:50.999Z,41.65
2023-05-18T11:04:24.850Z,40.69
2023-05-18T11:06:59.116Z,40.84
2023-05-18T11:09:27.977Z,41.16
2023-05-18T11:11:59.695Z,40.63
2023-05-18T11:14:34.718Z,43.04
2023-05-18T11:17:19.339Z,42.63
2023-05-18T11:20:13.299Z,39.58
2023-05-18T11:22:48.782Z,40.79
2023-05-18T11:25:40.018Z,39.57
2023-05-18T11:28:10.320Z,39.21
2023-05-18T11:30:55.076Z,38.85
2023-05-18T11:33:25.714Z,40.36
2023-05-18T11:36:07.777Z,42.75
2023-05-18T11:38:50.832Z,41.71
2023-05-18T11:41:29.873Z,38.48
2023-05-18T11:44:19.185Z,37.89
2023-05-18T11:46:57.735Z,39.80
2023-05-18T11:49:28.978Z,40.15
2023-05-18T11:52:07.962Z,38.43
2023-05-18T11:54:48.306Z,39.95
2023-05-18T11:57:18.898Z,38.80
2023-05-18T11:59:51.496Z,37.90
2023-05-18T12:02:27.861Z,39.51
2023-05-18T12:04:58.742Z,40.18
2023-05-18T12:07:28.497Z,39.03
2023-05-18T12:09:59.915Z,40.38
2023-05-18T12:12:29.864Z,41.27
2023-05-18T12:14:59.946Z,40.68
2023-05-18T12:17:47.964Z,39.64
2023-05-18T12:20:18.163Z,38.83
2023-05-18T12:22:50.445Z,38.15
2023-05-18T12:25:19.784Z,37.29
2023-05-18T12:27:49.341Z,35.80
2023-05-18T12:30:19.843Z,34.30
2023-05-18T12:32:53.423Z,33.95
2023-05-18T12:35:24.164Z,35.26
2023-05-18T12:37:52.589Z,37.33
2023-05-18T12:40:22.067Z,34.79
2023-05-18T12:42:54.715Z,34.07
2023-05-18T12:45:25.198Z,34.39
2023-05-18T12:47:56.299Z,36.36
2023-05-18T12:50:27.161Z,35.80
2023-05-18T12:52:56.775Z,35.73
2023-05-18T12:55:26.790Z,36.42
2023-05-18T12:58:03.587Z,35.62
2023-05-18T13:00:35.102Z,35.93
2023-05-18T13:03:15.387Z,35.42
2023-05-18T13:05:45.737Z,37.01
2023-05-18T13:08:16.556Z,38.00
2023-05-18T13:10:45.779Z,37.60
2023-05-18T13:13:17.687Z,37.16
2023-05-18T13:15:46.993Z,36.23
2023-05-18T13:18:17.460Z,37.03
2023-05-18T13:20:48.909Z,38.68
2023-05-18T13:23:19.509Z,36.42
2023-05-18T13:25:47.988Z,37.97
2023-05-18T13:28:19.070Z,39.19
2023-05-18T13:30:49.182Z,37.72
2023-05-18T13:33:19.595Z,37.31
2023-05-18T13:35:50.110Z,36.40
2023-05-18T13:38:18.547Z,36.01
2023-05-18T13:40:47.253Z,35.79
2023-05-18T13:43:15.397Z,36.63
2023-05-18T13:45:43.904Z,36.81
2023-05-18T13:48:12.159Z,38.42
2023-05-18T13:50:42.254Z,36.50
2023-05-18T13:53:11.022Z,36.63
2023-05-18T13:55:39.622Z,36.14
2023-05-18T13:58:07.967Z,36.28
2023-05-18T14:00:36.581Z,36.89
2023-05-18T14:03:06.521Z,38.67
2023-05-18T14:05:35.372Z,38.08
2023-05-18T14:08:05.371Z,38.72
2023-05-18T14:10:33.857Z,36.82
2023-05-18T14:13:02.135Z,36.17
2023-05-18T14:15:31.461Z,36.02
2023-05-18T14:17:59.960Z,35.62
2023-05-18T14:20:29.621Z,35.90
2023-05-18T14:22:58.212Z,35.75
2023-05-18T14:25:28.073Z,35.84
2023-05-18T14:27:56.473Z,35.79
2023-05-18T14:30:25.552Z,36.14
2023-05-18T14:32:54.030Z,36.75
2023-05-18T14:35:22.942Z,36.24
2023-05-18T14:37:51.422Z,36.68
2023-05-18T14:40:19.573Z,35.48
2023-05-18T14:42:50.407Z,35.71
2023-05-18T14:45:20.659Z,35.11
2023-05-18T14:47:48.918Z,34.74
2023-05-18T14:50:17.386Z,34.08
2023-05-18T14:52:46.995Z,35.59
2023-05-18T14:55:15.249Z,35.77
2023-05-18T14:57:43.663Z,34.83
2023-05-18T15:00:16.510Z,35.78
2023-05-18T15:02:44.780Z,35.34
2023-05-18T15:05:13.269Z,35.77
2023-05-18T15:07:41.699Z,35.05
2023-05-18T15:10:11.266Z,35.44
2023-05-18T15:12:39.664Z,35.30
2023-05-18T15:15:09.165Z,35.34
2023-05-18T15:17:39.014Z,35.10
2023-05-18T15:20:08.963Z,34.39
2023-05-18T15:22:38.690Z,35.14
2023-05-18T15:25:08.926Z,35.48
2023-05-18T15:27:39.551Z,35.06
2023-05-18T15:30:11.858Z,36.34
2023-05-18T15:32:42.762Z,37.09
2023-05-18T15:35:11.979Z,37.33
2023-05-18T15:37:40.479Z,37.08
2023-05-18T15:40:10.471Z,35.86
2023-05-18T15:42:39.263Z,36.38
2023-05-18T15:45:08.966Z,36.15
2023-05-18T15:47:38.911Z,35.90
2023-05-18T15:50:10.403Z,35.56
2023-05-18T15:52:38.887Z,35.89
2023-05-18T15:55:08.372Z,36.62
2023-05-18T15:57:38.056Z,37.01
2023-05-18T16:00:09.565Z,36.59
2023-05-18T16:02:38.167Z,36.83
2023-05-18T16:05:09.784Z,37.04
2023-05-18T16:07:41.291Z,36.98
2023-05-18T16:10:10.838Z,36.63
2023-05-18T16:12:39.345Z,35.56
2023-05-18T16:15:08.958Z,35.78
2023-05-18T16:17:38.642Z,36.31
2023-05-18T16:20:10.563Z,35.81
2023-05-18T16:22:39.350Z,36.29
2023-05-18T16:25:09.005Z,36.66
2023-05-18T16:27:37.389Z,36.39
2023-05-18T16:30:08.520Z,35.67
2023-05-18T16:32:37.007Z,35.65
2023-05-18T16:35:05.984Z,35.83
2023-05-18T16:37:36.714Z,35.01
2023-05-18T16:40:05.782Z,34.76
2023-05-18T16:42:34.301Z,35.12
2023-05-18T16:45:02.525Z,34.38
2023-05-18T16:47:32.823Z,34.20
2023-05-18T16:50:01.903Z,34.76
2023-05-18T16:52:30.364Z,35.25
2023-05-18T16:55:02.317Z,35.42
2023-05-18T16:57:31.237Z,35.83
2023-05-18T17:00:01.266Z,35.87
2023-05-18T17:02:30.053Z,37.12
2023-05-18T17:04:59.159Z,36.25
2023-05-18T17:07:27.445Z,35.50
2023-05-18T17:09:55.935Z,36.89
2023-05-18T17:12:26.222Z,36.97
2023-05-18T17:14:54.605Z,35.92
2023-05-18T17:17:23.766Z,36.06
2023-05-18T17:19:52.341Z,36.26
2023-05-18T17:22:20.669Z,36.13
2023-05-18T17:24:48.807Z,37.38
2023-05-18T17:27:16.962Z,37.62
2023-05-18T17:29:46.635Z,37.53
2023-05-18T17:32:15.180Z,38.95
2023-05-18T17:34:44.781Z,39.26
2023-05-18T17:37:14.424Z,39.12
2023-05-18T17:39:44.110Z,39.33
2023-05-18T17:42:12.550Z,39.65
2023-05-18T17:44:40.776Z,40.17
2023-05-18T17:47:10.582Z,39.35
2023-05-18T17:49:39.160Z,40.09
2023-05-18T17:52:08.074Z,40.61
2023-05-18T17:54:37.706Z,41.14
2023-05-18T17:57:06.677Z,40.92
2023-05-18T17:59:37.207Z,41.74
2023-05-18T18:02:06.108Z,41.32
2023-05-18T18:04:36.134Z,41.79
2023-05-18T18:07:05.429Z,42.17
2023-05-18T18:09:33.862Z,42.39
2023-05-18T18:12:02.498Z,42.80
2023-05-18T18:14:33.774Z,42.26
2023-05-18T18:17:02.195Z,42.96
2023-05-18T18:19:30.626Z,42.36
2023-05-18T18:22:00.669Z,42.27
2023-05-18T18:24:29.024Z,43.35
2023-05-18T18:26:57.799Z,44.64
2023-05-18T18:29:29.854Z,44.30
2023-05-18T18:31:58.419Z,44.23
2023-05-18T18:34:26.747Z,45.01
2023-05-18T18:36:57.019Z,45.39
2023-05-18T18:39:27.328Z,45.65
2023-05-18T18:41:55.919Z,45.90
2023-05-18T18:44:24.382Z,46.46
2023-05-18T18:46:52.822Z,45.92
2023-05-18T18:49:21.201Z,47.15
2023-05-18T18:51:51.917Z,49.56
2023-05-18T18:54:20.614Z,50.00
2023-05-18T18:56:51.214Z,49.81
2023-05-18T18:59:21.380Z,51.06
2023-05-18T19:01:51.031Z,50.73
2023-05-18T19:04:20.966Z,50.56
2023-05-18T19:06:54.025Z,51.94
2023-05-18T19:09:24.351Z,52.85
2023-05-18T19:11:54.700Z,54.66
2023-05-18T19:14:23.647Z,55.36
2023-05-18T19:16:52.314Z,56.50
2023-05-18T19:19:20.931Z,57.09
2023-05-18T19:21:50.791Z,57.51
2023-05-18T19:24:19.248Z,57.74
2023-05-18T19:26:50.422Z,58.61
2023-05-18T19:29:20.474Z,59.60
2023-05-18T19:31:50.407Z,59.63
2023-05-18T19:34:19.327Z,59.60
2023-05-18T19:36:49.045Z,59.97
2023-05-18T19:39:17.666Z,62.44
2023-05-18T19:41:46.407Z,61.91
2023-05-18T19:44:16.433Z,62.86
2023-05-18T19:46:46.429Z,62.95
2023-05-18T19:49:14.955Z,64.39
2023-05-18T19:51:43.462Z,64.71
2023-05-18T19:54:14.473Z,65.13
2023-05-18T19:56:43.010Z,65.13
2023-05-18T19:59:11.632Z,65.49
2023-05-18T20:01:40.232Z,65.74
2023-05-18T20:04:10.698Z,66.57
2023-05-18T20:06:40.585Z,67.12
2023-05-18T20:09:10.474Z,68.44
2023-05-18T20:11:41.558Z,69.61
2023-05-18T20:14:11.520Z,69.64
2023-05-18T20:16:40.918Z,69.18
2023-05-18T20:19:14.366Z,69.58
2023-05-18T20:21:42.912Z,69.49
2023-05-18T20:24:12.804Z,69.12
2023-05-18T20:26:41.590Z,69.30
2023-05-18T20:29:09.807Z,68.96
2023-05-18T20:31:38.702Z,69.08
2023-05-18T20:34:07.352Z,71.17
2023-05-18T20:36:38.226Z,70.45
2023-05-18T20:39:07.438Z,72.54
2023-05-18T20:41:40.974Z,76.22
2023-05-18T20:44:12.031Z,74.90
2023-05-18T20:46:42.818Z,74.53
2023-05-18T20:49:12.539Z,75.64
2023-05-18T20:51:43.333Z,79.57
2023-05-18T20:54:12.965Z,78.82
2023-05-18T20:56:41.782Z,81.13
2023-05-18T20:59:13.391Z,77.36
2023-05-18T21:01:42.945Z,79.71
2023-05-18T21:04:13.664Z,79.17
2023-05-18T21:06:46.573Z,80.24
2023-05-18T21:09:14.802Z,80.87
2023-05-18T21:11:43.104Z,81.62
2023-05-18T21:14:11.502Z,80.72
2023-05-18T21:16:39.839Z,81.02
2023-05-18T21:19:08.093Z,81.06
2023-05-18T21:21:37.063Z,82.38
2023-05-18T21:24:07.157Z,81.51
2023-05-18T21:26:35.380Z,82.54
2023-05-18T21:29:04.797Z,82.51
2023-05-18T21:31:33.385Z,84.03
2023-05-18T21:34:01.950Z,83.58
2023-05-18T21:36:34.312Z,82.92
2023-05-18T21:39:04.204Z,83.11
2023-05-18T21:41:35.431Z,83.75
2023-05-18T21:44:03.666Z,86.09
2023-05-18T21:46:32.062Z,86.97
2023-05-18T21:49:01.806Z,87.27
2023-05-18T21:51:32.705Z,87.94
2023-05-18T21:54:02.923Z,90.10
2023-05-18T21:56:35.255Z,89.37
2023-05-18T21:59:09.949Z,89.56
2023-05-18T22:01:38.864Z,89.75
2023-05-18T22:04:07.391Z,90.11
2023-05-18T22:06:38.018Z,90.11
2023-05-18T22:09:06.550Z,90.19
2023-05-18T22:11:35.124Z,90.38
2023-05-18T22:14:05.143Z,91.02
2023-05-18T22:16:34.959Z,92.17
2023-05-18T22:19:03.475Z,91.44
2023-05-18T22:21:32.112Z,93.12
2023-05-18T22:24:00.927Z,93.66
2023-05-18T22:26:29.634Z,93.89
2023-05-18T22:29:00.008Z,95.21
2023-05-18T22:31:33.497Z,95.91
2023-05-18T22:34:06.564Z,98.52
2023-05-18T22:36:36.477Z,99.13
2023-05-18T22:39:07.062Z,99.48
2023-05-18T22:41:35.497Z,100.00
2023-05-18T22:44:03.774Z,100.00
2023-05-18T22:46:35.150Z,100.00
2023-05-18T22:49:05.713Z,100.00
2023-05-18T22:51:35.853Z,100.00
2023-05-18T22:54:04.383Z,100.00
2023-05-18T22:56:33.016Z,100.00
2023-05-18T22:59:01.334Z,100.00
2023-05-18T23:01:29.884Z,100.00
2023-05-18T23:04:00.697Z,100.00
2023-05-18T23:06:31.850Z,100.00
2023-05-18T23:09:01.131Z,100.00
2023-05-18T23:11:31.167Z,100.00
2023-05-18T23:14:02.854Z,100.00
2023-05-18T23:16:31.386Z,100.00
2023-05-18T23:19:01.992Z,100.00
2023-05-18T23:21:31.272Z,100.00
2023-05-18T23:23:59.960Z,100.00
2023-05-18T23:26:28.300Z,100.00
2023-05-18T23:28:56.492Z,100.00
2023-05-18T23:31:25.622Z,100.00
2023-05-18T23:33:54.617Z,100.00
2023-05-18T23:36:27.553Z,100.00
2023-05-18T23:38:59.092Z,100.00
2023-05-18T23:41:28.832Z,100.00
2023-05-18T23:43:58.605Z,100.00
2023-05-18T23:46:27.354Z,100.00
2023-05-18T23:48:58.025Z,100.00
2023-05-18T23:51:32.221Z,100.00
2023-05-18T23:54:00.796Z,100.00
2023-05-18T23:56:30.923Z,100.00
2023-05-18T23:59:01.817Z,100.00
